Time;durP1;ratioP1;P1;durP2;ratioP2;P2;SDS_P1;SDS_P2;PMS_P1;PMS_P2;Temp;Humidity;BMP_temperature;BMP_pressure;BME280_temperature;BME280_humidity;BME280_pressure;Samples;Min_cycle;Max_cycle;Signal;HPM_P1;HPM_P2
2021/12/25 00:02:15;;;;;;;7.22;3.20;;;;;;;;;;5005105;28;20026;-77
2021/12/25 00:04:41;;;;;;;11.40;4.88;;;;;;;;;;5002713;28;20026;-78
2021/12/25 00:07:07;;;;;;;8.63;4.40;;;;;;;;;;5000407;28;20141;-77
2021/12/25 00:09:33;;;;;;;11.55;4.82;;;;;;;;;;5003172;28;20092;-77
2021/12/25 00:11:59;;;;;;;12.05;5.25;;;;;;;;;;5007653;28;20049;-77
2021/12/25 00:14:25;;;;;;;12.13;4.47;;;;;;;;;;5008578;28;20030;-77
2021/12/25 00:16:53;;;;;;;9.90;5.00;;;;;;;;;;5003422;28;20098;-77
2021/12/25 00:19:19;;;;;;;10.25;4.30;;;;;;;;;;5002921;28;20022;-78
2021/12/25 00:21:45;;;;;;;7.10;3.85;;;;;;;;;;5012823;28;20031;-78
2021/12/25 00:24:11;;;;;;;8.23;3.80;;;;;;;;;;5004599;28;20436;-77
2021/12/25 00:26:45;;;;;;;10.18;3.88;;;;;;;;;;5006316;28;20033;-78
2021/12/25 00:29:37;;;;;;;9.65;4.00;;;;;;;;;;4992592;28;20100;-78
2021/12/25 00:34:35;;;;;;;9.93;4.23;;;;;;;;;;5002365;28;20389;-78
2021/12/25 00:37:02;;;;;;;10.00;4.13;;;;;;;;;;5004725;28;20111;-77
2021/12/25 00:39:29;;;;;;;11.07;4.28;;;;;;;;;;5006485;28;20052;-77
2021/12/25 00:41:56;;;;;;;8.27;4.28;;;;;;;;;;5003875;28;20424;-77
2021/12/25 00:44:22;;;;;;;9.20;3.47;;;;;;;;;;5007377;28;20113;-78
2021/12/25 00:46:48;;;;;;;12.82;4.72;;;;;;;;;;5003422;28;20183;-77
2021/12/25 00:49:14;;;;;;;8.02;3.33;;;;;;;;;;5003435;28;20038;-78
2021/12/25 00:51:40;;;;;;;8.20;3.25;;;;;;;;;;5007379;28;20032;-78
2021/12/25 00:54:06;;;;;;;8.43;4.00;;;;;;;;;;5010173;28;20026;-78
2021/12/25 00:56:32;;;;;;;8.70;3.88;;;;;;;;;;5004883;28;20481;-78
2021/12/25 00:58:58;;;;;;;6.38;2.92;;;;;;;;;;5002379;28;20034;-77
2021/12/25 01:01:24;;;;;;;7.07;3.08;;;;;;;;;;5003573;28;20026;-77
2021/12/25 01:03:50;;;;;;;10.70;4.60;;;;;;;;;;5002783;28;20033;-77
2021/12/25 01:06:16;;;;;;;7.88;4.03;;;;;;;;;;5007321;28;20042;-77
2021/12/25 01:08:41;;;;;;;8.40;4.10;;;;;;;;;;5002115;28;20466;-78
2021/12/25 01:11:08;;;;;;;12.18;4.35;;;;;;;;;;5009078;28;20057;-78
2021/12/25 01:13:39;;;;;;;9.40;4.10;;;;;;;;;;5008248;28;20029;-76
2021/12/25 01:24:19;;;;;;;9.57;4.28;;;;;;;;;;5013175;28;20033;-77
2021/12/25 01:32:09;;;;;;;7.90;3.95;;;;;;;;;;5004401;28;20123;-77
2021/12/25 01:37:06;;;;;;;10.57;4.63;;;;;;;;;;5001458;28;20548;-78
2021/12/25 01:40:24;;;;;;;;;;;;;;;;;;5004166;28;20031;-77
2021/12/25 01:47:53;;;;;;;10.43;3.88;;;7.10;99.90;;;;;;5006535;28;20107;-77
2021/12/25 01:50:24;;;;;;;10.65;4.40;;;;;;;;;;5005192;28;20026;-78
2021/12/25 01:52:51;;;;;;;7.80;3.72;;;;;;;;;;5007907;28;20165;-77
2021/12/25 01:55:19;;;;;;;7.85;3.30;;;;;;;;;;5003565;28;20159;-77
2021/12/25 01:57:46;;;;;;;8.65;3.75;;;;;;;;;;5008009;28;20033;-77
2021/12/25 02:00:21;;;;;;;8.88;3.45;;;;;;;;;;5001489;28;20080;-77
2021/12/25 02:02:48;;;;;;;7.57;3.47;;;;;;;;;;5002084;28;20436;-77
2021/12/25 02:05:14;;;;;;;7.78;3.95;;;6.50;99.90;;;;;;5005513;28;20041;-77
2021/12/25 02:07:41;;;;;;;6.90;3.75;;;;;;;;;;5006956;28;20145;-77
2021/12/25 02:10:07;;;;;;;8.13;3.70;;;;;;;;;;5007066;28;20560;-77
2021/12/25 02:12:34;;;;;;;7.18;3.58;;;;;;;;;;5007579;28;20048;-77
2021/12/25 02:15:06;;;;;;;7.57;3.30;;;;;;;;;;5007502;28;20031;-77
2021/12/25 02:17:51;;;;;;;7.28;4.05;;;;;;;;;;5008667;28;20037;-77
2021/12/25 02:20:24;;;;;;;7.70;3.85;;;7.60;99.90;;;;;;5003888;28;20030;-76
2021/12/25 02:22:54;;;;;;;7.15;3.75;;;;;;;;;;5006851;28;20057;-77
2021/12/25 02:25:21;;;;;;;8.85;3.75;;;6.60;99.90;;;;;;5005574;28;20026;-78
2021/12/25 02:27:47;;;;;;;12.93;4.28;;;;;;;;;;5007966;28;20050;-77
2021/12/25 02:30:14;;;;;;;8.00;3.33;;;;;;;;;;5004136;28;20030;-77
2021/12/25 02:32:43;;;;;;;8.88;3.05;;;;;;;;;;5002829;28;20072;-77
2021/12/25 02:35:09;;;;;;;10.52;3.95;;;;;;;;;;5005411;28;20125;-77
2021/12/25 02:37:35;;;;;;;10.15;3.97;;;;;;;;;;5006767;28;20152;-77
2021/12/25 02:40:01;;;;;;;6.57;3.38;;;;;;;;;;5007767;28;20505;-76
2021/12/25 02:42:27;;;;;;;6.57;3.50;;;;;;;;;;5004323;28;20041;-77
2021/12/25 02:44:53;;;;;;;10.30;4.78;;;;;;;;;;5004452;28;20128;-77
2021/12/25 02:47:21;;;;;;;9.13;4.53;;;;;;;;;;5001587;28;20476;-77
2021/12/25 02:49:48;;;;;;;8.40;3.72;;;;;;;;;;4999346;28;20406;-77
2021/12/25 02:52:14;;;;;;;11.02;4.03;;;;;;;;;;5001331;28;20117;-77
2021/12/25 02:54:40;;;;;;;7.70;2.88;;;;;;;;;;5000139;28;20036;-77
2021/12/25 02:57:06;;;;;;;7.93;3.92;;;;;;;;;;5001630;28;20076;-77
2021/12/25 02:59:32;;;;;;;5.78;3.35;;;;;;;;;;5005686;28;20457;-77
2021/12/25 03:02:06;;;;;;;8.73;3.75;;;6.60;99.90;;;;;;4996191;28;20517;-77
2021/12/25 03:04:33;;;;;;;7.05;3.47;;;;;;;;;;5007418;28;20030;-77
2021/12/25 03:06:59;;;;;;;7.30;2.65;;;;;;;;;;5001640;28;20038;-77
2021/12/25 03:09:25;;;;;;;8.50;3.25;;;;;;;;;;5003360;28;20032;-77
2021/12/25 03:11:52;;;;;;;7.53;3.42;;;;;;;;;;5002064;28;20034;-77
2021/12/25 03:14:33;;;;;;;7.63;3.30;;;;;;;;;;5007944;28;20026;-77
2021/12/25 03:17:00;;;;;;;6.50;3.47;;;;;;;;;;5002982;28;20040;-77
2021/12/25 03:19:31;;;;;;;7.43;3.28;;;;;;;;;;5000318;28;20030;-77
2021/12/25 03:21:58;;;;;;;7.35;2.97;;;;;;;;;;5006689;28;20041;-76
2021/12/25 03:24:24;;;;;;;4.53;1.70;;;;;;;;;;5002652;28;20044;-78
2021/12/25 03:26:53;;;;;;;7.78;3.83;;;;;;;;;;5002146;28;20040;-77
2021/12/25 03:29:19;;;;;;;7.32;2.80;;;;;;;;;;5000022;28;20037;-77
2021/12/25 03:31:45;;;;;;;5.55;2.90;;;;;;;;;;5004245;28;20036;-77
2021/12/25 03:34:12;;;;;;;6.97;2.55;;;;;;;;;;5004898;28;20067;-77
2021/12/25 03:36:38;;;;;;;5.60;3.33;;;;;;;;;;5004375;28;20034;-77
2021/12/25 03:39:06;;;;;;;6.20;2.50;;;;;;;;;;4997587;28;20497;-77
2021/12/25 03:41:32;;;;;;;4.00;2.40;;;;;;;;;;5005937;28;20041;-77
2021/12/25 03:43:58;;;;;;;7.68;2.92;;;;;;;;;;4995890;28;20030;-77
2021/12/25 03:46:24;;;;;;;5.28;2.22;;;;;;;;;;5003365;28;20044;-78
2021/12/25 03:59:31;;;;;;;8.02;2.70;;;;;;;;;;5000792;28;20096;-77
2021/12/25 04:02:02;;;;;;;6.47;3.25;;;;;;;;;;5003871;28;20033;-77
2021/12/25 04:07:13;;;;;;;7.28;3.70;;;;;;;;;;5002172;28;20144;-76
2021/12/25 04:09:40;;;;;;;8.80;4.22;;;;;;;;;;5003240;28;20433;-77
2021/12/25 04:12:09;;;;;;;8.82;3.67;;;;;;;;;;5008933;28;20558;-77
2021/12/25 04:14:35;;;;;;;8.52;3.83;;;;;;;;;;5003131;28;20032;-77
2021/12/25 04:17:02;;;;;;;6.32;2.60;;;;;;;;;;5003283;28;20092;-77
2021/12/25 04:19:28;;;;;;;7.45;3.35;;;;;;;;;;5004027;28;20042;-77
2021/12/25 04:21:59;;;;;;;10.93;3.95;;;;;;;;;;4995268;28;22673;-77
2021/12/25 04:24:27;;;;;;;6.97;2.88;;;;;;;;;;4989516;28;20042;-77
2021/12/25 04:26:53;;;;;;;10.13;2.92;;;;;;;;;;5006830;28;20033;-78
2021/12/25 05:02:02;;;;;;;3.88;1.58;;;;;;;;;;5002651;28;20030;-78
2021/12/25 05:04:40;;;;;;;7.35;2.65;;;;;;;;;;5010203;28;20026;-77
2021/12/25 05:07:06;;;;;;;10.73;3.88;;;;;;;;;;5006480;28;20096;-77
2021/12/25 05:09:32;;;;;;;9.48;2.78;;;;;;;;;;5005877;28;20080;-77
2021/12/25 05:11:58;;;;;;;7.97;3.10;;;;;;;;;;5004914;28;20091;-77
2021/12/25 05:14:24;;;;;;;7.68;2.95;;;;;;;;;;5010486;28;20071;-77
2021/12/25 05:16:52;;;;;;;5.47;2.80;;;;;;;;;;5006500;28;20029;-77
2021/12/25 05:19:18;;;;;;;8.85;3.22;;;;;;;;;;5019242;28;20098;-77
2021/12/25 05:21:44;;;;;;;6.82;3.28;;;;;;;;;;5010808;28;20456;-77
2021/12/25 05:24:10;;;;;;;6.88;3.40;;;;;;;;;;5013019;28;20497;-77
2021/12/25 05:26:36;;;;;;;8.15;3.60;;;;;;;;;;5008679;28;21753;-77
2021/12/25 05:29:03;;;;;;;9.13;3.38;;;6.90;99.90;;;;;;5004632;28;20030;-78
2021/12/25 05:31:31;;;;;;;3.45;1.77;;;7.40;99.90;;;;;;4989597;28;20022;-78
2021/12/25 05:33:58;;;;;;;6.40;3.00;;;;;;;;;;5009854;28;20098;-77
2021/12/25 05:36:26;;;;;;;4.78;2.05;;;;;;;;;;5007206;28;20137;-77
2021/12/25 05:38:56;;;;;;;8.10;2.92;;;;;;;;;;5008576;28;20466;-77
2021/12/25 05:41:22;;;;;;;7.85;2.72;;;;;;;;;;5001812;28;20071;-77
2021/12/25 05:43:48;;;;;;;5.97;2.67;;;;;;;;;;5005067;28;20022;-77
2021/12/25 05:46:14;;;;;;;8.07;2.78;;;;;;;;;;5004662;28;20129;-78
2021/12/25 05:48:40;;;;;;;6.88;3.05;;;;;;;;;;5007564;28;20061;-78
2021/12/25 05:51:06;;;;;;;3.15;1.75;;;;;;;;;;5009295;28;20069;-78
2021/12/25 05:53:33;;;;;;;4.35;2.05;;;;;;;;;;5010724;28;20066;-78
2021/12/25 05:55:59;;;;;;;5.78;2.33;;;;;;;;;;5008257;28;20026;-77
2021/12/25 05:58:25;;;;;;;8.43;4.07;;;;;;;;;;5003263;28;20416;-76
2021/12/25 06:00:52;;;;;;;7.72;3.50;;;6.60;99.90;;;;;;5003593;28;20161;-77
2021/12/25 06:03:18;;;;;;;5.95;2.08;;;;;;;;;;5002941;28;20148;-77
2021/12/25 06:05:44;;;;;;;6.32;2.30;;;;;;;;;;5008742;28;20104;-77
2021/12/25 06:08:10;;;;;;;4.75;2.60;;;;;;;;;;5008759;28;20073;-77
2021/12/25 06:10:36;;;;;;;5.43;3.03;;;;;;;;;;5008110;28;20497;-77
2021/12/25 06:13:02;;;;;;;6.78;3.05;;;;;;;;;;5004145;28;20041;-77
2021/12/25 06:15:28;;;;;;;4.10;2.55;;;;;;;;;;5005274;28;20118;-77
2021/12/25 06:17:56;;;;;;;6.05;1.38;;;6.60;99.90;;;;;;5016459;28;20060;-77
2021/12/25 06:20:22;;;;;;;5.20;2.55;;;;;;;;;;5003271;28;20395;-77
2021/12/25 06:22:48;;;;;;;3.88;1.63;;;;;;;;;;5003939;28;20032;-77
2021/12/25 06:25:14;;;;;;;5.10;1.77;;;;;;;;;;5003843;28;20038;-77
2021/12/25 06:27:40;;;;;;;2.33;1.15;;;;;;;;;;5008840;28;20054;-78
2021/12/25 06:30:07;;;;;;;4.47;1.70;;;;;;;;;;5003972;28;20027;-77
2021/12/25 06:32:33;;;;;;;2.80;0.98;;;;;;;;;;5002271;28;20430;-78
2021/12/25 06:34:59;;;;;;;3.33;1.27;;;;;;;;;;5006509;28;20033;-77
2021/12/25 06:37:26;;;;;;;2.47;1.48;;;;;;;;;;5009851;28;20037;-78
2021/12/25 06:39:52;;;;;;;1.40;1.00;;;;;;;;;;5003187;28;20429;-77
2021/12/25 06:42:18;;;;;;;3.00;1.30;;;;;;;;;;5007258;28;20025;-77
2021/12/25 06:44:44;;;;;;;3.97;1.95;;;;;;;;;;5004473;28;20037;-78
2021/12/25 06:47:10;;;;;;;4.63;1.90;;;;;;;;;;5006814;28;20466;-77
2021/12/25 06:49:36;;;;;;;3.63;2.33;;;;;;;;;;5004024;28;20054;-78
2021/12/25 06:52:02;;;;;;;5.63;2.70;;;;;;;;;;5005582;28;20030;-77
2021/12/25 06:54:28;;;;;;;7.28;2.72;;;;;;;;;;5006400;28;20088;-78
2021/12/25 06:56:54;;;;;;;5.55;2.45;;;;;;;;;;5007541;28;20517;-78
2021/12/25 06:59:23;;;;;;;5.53;1.45;;;;;;;;;;5009322;28;20117;-78
2021/12/25 07:01:50;;;;;;;6.25;3.42;;;;;;;;;;5009623;28;20084;-77
2021/12/25 07:04:16;;;;;;;4.75;2.40;;;;;;;;;;5006560;28;20029;-77
2021/12/25 07:06:42;;;;;;;3.15;2.05;;;;;;;;;;5005529;28;20030;-77
2021/12/25 07:09:09;;;;;;;4.65;2.13;;;;;;;;;;5009939;28;20018;-77
2021/12/25 07:11:35;;;;;;;4.07;2.35;;;;;;;;;;5005906;28;20030;-78
2021/12/25 07:14:03;;;;;;;3.10;1.52;;;;;;;;;;5007569;28;20100;-77
2021/12/25 07:16:30;;;;;;;4.57;1.63;;;6.90;99.90;;;;;;5001363;28;20030;-77
2021/12/25 07:18:56;;;;;;;2.55;1.48;;;;;;;;;;4998106;28;20474;-78
2021/12/25 07:21:22;;;;;;;9.13;2.70;;;;;;;;;;5009794;28;20080;-79
2021/12/25 07:23:48;;;;;;;7.68;3.05;;;;;;;;;;5002420;28;20117;-77
2021/12/25 07:26:17;;;;;;;5.20;2.53;;;;;;;;;;5001702;28;20133;-77
2021/12/25 07:28:43;;;;;;;4.72;1.98;;;;;;;;;;5001828;28;20037;-78
2021/12/25 07:31:09;;;;;;;4.05;2.17;;;;;;;;;;5014001;28;20064;-78
2021/12/25 07:33:36;;;;;;;4.20;2.28;;;;;;;;;;5001923;28;20494;-78
2021/12/25 07:36:03;;;;;;;4.70;1.90;;;;;;;;;;5000155;28;20028;-77
2021/12/25 07:38:29;;;;;;;2.58;1.65;;;;;;;;;;5002481;28;20026;-77
2021/12/25 07:40:55;;;;;;;5.50;2.47;;;;;;;;;;4999987;28;20027;-78
2021/12/25 07:43:21;;;;;;;3.65;2.13;;;;;;;;;;5003270;28;20034;-77
2021/12/25 07:45:48;;;;;;;5.15;2.58;;;;;;;;;;5002805;28;20054;-78
2021/12/25 07:48:14;;;;;;;4.43;2.63;;;;;;;;;;5003735;28;20053;-78
2021/12/25 07:50:41;;;;;;;5.65;2.88;;;;;;;;;;5006262;28;20034;-79
2021/12/25 07:53:07;;;;;;;7.22;3.17;;;;;;;;;;5003264;28;20531;-78
2021/12/25 07:55:33;;;;;;;5.35;3.85;;;;;;;;;;5006352;28;20023;-77
2021/12/25 07:58:00;;;;;;;5.95;3.10;;;;;;;;;;5004958;28;20531;-77
2021/12/25 08:00:26;;;;;;;6.68;2.72;;;;;;;;;;4999209;28;20041;-78
2021/12/25 08:02:52;;;;;;;5.15;2.33;;;;;;;;;;4996735;28;20116;-78
2021/12/25 08:05:18;;;;;;;4.28;2.35;;;;;;;;;;5004734;28;20030;-78
2021/12/25 08:07:44;;;;;;;5.95;2.80;;;;;;;;;;5001114;28;20370;-77
2021/12/25 08:10:13;;;;;;;9.52;4.00;;;;;;;;;;5003528;28;20104;-77
2021/12/25 08:12:40;;;;;;;4.50;3.17;;;;;;;;;;5001298;28;20482;-77
2021/12/25 08:15:06;;;;;;;4.65;2.78;;;;;;;;;;4999903;28;20040;-77
2021/12/25 08:17:32;;;;;;;4.03;1.88;;;;;;;;;;5001040;28;20034;-77
2021/12/25 08:19:58;;;;;;;23.77;10.68;;;;;;;;;;5006298;28;20033;-77
2021/12/25 08:22:24;;;;;;;6.97;3.67;;;;;;;;;;5005048;28;20057;-77
2021/12/25 08:24:51;;;;;;;2.00;1.13;;;;;;;;;;5002099;28;20041;-76
2021/12/25 08:27:17;;;;;;;1.85;0.95;;;7.00;99.90;;;;;;5006135;28;20046;-77
2021/12/25 08:29:43;;;;;;;1.95;0.80;;;;;;;;;;4997650;28;20033;-77
2021/12/25 08:32:10;;;;;;;1.92;1.02;;;;;;;;;;5001841;28;20508;-77
2021/12/25 08:34:38;;;;;;;2.47;1.40;;;;;;;;;;5009946;28;20026;-77
2021/12/25 08:37:04;;;;;;;4.55;2.38;;;;;;;;;;5001293;28;20430;-77
2021/12/25 08:39:31;;;;;;;6.55;2.28;;;;;;;;;;5003536;28;20038;-77
2021/12/25 08:42:01;;;;;;;5.00;2.38;;;;;;;;;;5008520;28;20485;-76
2021/12/25 08:44:38;;;;;;;3.47;1.42;;;6.40;99.90;;;;;;5009923;28;20064;-77
2021/12/25 08:47:06;;;;;;;2.40;1.38;;;;;;;;;;5009238;28;20258;-77
2021/12/25 08:49:33;;;;;;;6.05;2.00;;;6.60;99.90;;;;;;5015422;28;20065;-77
2021/12/25 08:52:01;;;;;;;3.13;1.42;;;;;;;;;;5008438;28;20034;-77
2021/12/25 08:54:27;;;;;;;3.00;1.65;;;;;;;;;;4999249;28;20026;-78
2021/12/25 08:56:53;;;;;;;2.55;1.77;;;;;;;;;;5005143;28;20053;-77
2021/12/25 08:59:19;;;;;;;4.28;1.70;;;;;;;;;;5006068;28;20014;-78
2021/12/25 09:01:46;;;;;;;3.38;1.77;;;;;;;;;;5008607;28;20057;-77
2021/12/25 09:04:12;;;;;;;1.95;1.02;;;;;;;;;;5005938;28;20026;-78
2021/12/25 09:06:39;;;;;;;5.53;1.30;;;;;;;;;;5006776;28;20042;-77
2021/12/25 09:09:08;;;;;;;3.17;1.65;;;6.60;99.90;;;;;;5000591;28;20029;-76
2021/12/25 09:11:35;;;;;;;2.92;1.67;;;;;;;;;;5005675;28;20582;-77
2021/12/25 09:14:01;;;;;;;2.45;1.08;;;;;;;;;;5001544;28;20586;-77
2021/12/25 09:16:27;;;;;;;4.03;1.77;;;;;;;;;;5000527;28;20041;-77
2021/12/25 09:18:53;;;;;;;1.08;0.60;;;;;;;;;;5005686;28;20634;-78
2021/12/25 09:21:19;;;;;;;2.08;1.00;;;;;;;;;;5004991;28;20096;-77
2021/12/25 09:23:45;;;;;;;2.33;1.50;;;;;;;;;;5010011;28;20018;-77
2021/12/25 09:26:11;;;;;;;2.95;1.95;;;;;;;;;;5012532;28;20133;-78
2021/12/25 09:28:37;;;;;;;2.35;1.35;;;;;;;;;;5003742;28;20037;-77
2021/12/25 09:31:03;;;;;;;1.75;1.10;;;;;;;;;;5006399;28;20500;-77
2021/12/25 09:33:30;;;;;;;8.15;3.13;;;;;;;;;;5018903;28;20022;-77
2021/12/25 09:35:56;;;;;;;6.90;3.65;;;;;;;;;;5007422;28;20670;-77
2021/12/25 09:38:22;;;;;;;3.50;1.70;;;;;;;;;;5008803;28;20034;-77
2021/12/25 09:40:48;;;;;;;3.75;1.73;;;;;;;;;;5007695;28;20104;-78
2021/12/25 09:43:17;;;;;;;4.57;2.63;;;;;;;;;;5003660;28;20056;-78
2021/12/25 09:45:43;;;;;;;3.58;2.08;;;;;;;;;;5009533;28;20037;-78
2021/12/25 09:48:09;;;;;;;4.00;2.40;;;;;;;;;;5011615;28;20084;-78
2021/12/25 09:50:35;;;;;;;5.50;2.70;;;;;;;;;;5012884;28;20083;-77
2021/12/25 09:53:05;;;;;;;4.55;2.30;;;;;;;;;;5014510;28;20061;-78
2021/12/25 09:55:31;;;;;;;4.68;2.70;;;;;;;;;;5019133;28;20060;-77
2021/12/25 09:57:57;;;;;;;5.32;3.63;;;;;;;;;;5013163;28;20065;-78
2021/12/25 10:00:24;;;;;;;3.65;2.38;;;;;;;;;;5007491;28;20022;-77
2021/12/25 10:02:51;;;;;;;6.28;2.22;;;;;;;;;;5010723;28;20025;-78
2021/12/25 10:05:41;;;;;;;3.75;2.22;;;;;;;;;;5012545;28;20033;-78
2021/12/25 10:08:15;;;;;;;5.57;2.88;;;;;;;;;;5011351;28;20062;-77
2021/12/25 10:10:46;;;;;;;5.20;3.05;;;;;;;;;;5013574;28;20139;-77
2021/12/25 10:13:20;;;;;;;4.32;2.00;;;;;;;;;;5009154;28;20441;-78
2021/12/25 10:15:46;;;;;;;5.07;2.03;;;;;;;;;;4996166;28;20675;-78
2021/12/25 10:18:12;;;;;;;12.98;3.22;;;;;;;;;;5004205;28;20425;-79
2021/12/25 10:20:38;;;;;;;12.50;3.63;;;;;;;;;;5008548;28;20108;-78
2021/12/25 10:23:08;;;;;;;10.05;5.05;;;;;;;;;;4998744;28;20667;-78
2021/12/25 10:25:42;;;;;;;3.42;1.08;;;;;;;;;;4998806;28;20589;-77
2021/12/25 10:28:09;;;;;;;4.57;2.45;;;;;;;;;;4998090;28;20077;-77
2021/12/25 10:30:50;;;;;;;1.52;1.02;;;;;;;;;;4998627;28;20087;-78
2021/12/25 10:33:23;;;;;;;3.72;1.40;;;;;;;;;;5010325;28;20085;-78
2021/12/25 10:35:49;;;;;;;2.25;1.20;;;;;;;;;;4999620;28;20044;-78
2021/12/25 10:38:17;;;;;;;2.45;1.30;;;;;;;;;;4992796;28;20029;-78
2021/12/25 10:40:43;;;;;;;2.88;1.60;;;;;;;;;;5010598;28;20030;-78
2021/12/25 10:43:20;;;;;;;3.08;1.60;;;6.00;99.90;;;;;;5007183;28;20034;-77
2021/12/25 10:45:58;;;;;;;4.95;1.83;;;;;;;;;;5002578;28;20022;-78
2021/12/25 10:48:28;;;;;;;5.28;3.10;;;;;;;;;;5000898;28;20421;-77
2021/12/25 10:50:55;;;;;;;2.63;1.77;;;;;;;;;;5002669;28;20040;-77
2021/12/25 10:53:25;;;;;;;4.30;1.52;;;;;;;;;;5000406;28;20076;-77
2021/12/25 10:55:51;;;;;;;2.60;1.38;;;;;;;;;;5005532;28;20513;-77
2021/12/25 10:58:23;;;;;;;3.42;1.75;;;;;;;;;;5003039;28;20033;-77
2021/12/25 11:00:50;;;;;;;2.42;1.05;;;;;;;;;;5007451;28;20458;-77
2021/12/25 11:03:16;;;;;;;3.05;1.63;;;;;;;;;;4997358;28;20029;-77
2021/12/25 11:05:47;;;;;;;3.75;1.77;;;;;;;;;;4998575;28;20484;-77
2021/12/25 11:08:19;;;;;;;2.83;1.33;;;;;;;;;;5001786;28;20046;-77
2021/12/25 11:10:47;;;;;;;1.95;1.27;;;;;;;;;;5009025;28;20025;-77
2021/12/25 11:13:19;;;;;;;2.35;1.60;;;;;;;;;;5002721;28;20042;-77
2021/12/25 11:15:45;;;;;;;2.28;1.45;;;;;;;;;;4995659;28;20589;-77
2021/12/25 11:18:13;;;;;;;1.58;0.82;;;;;;;;;;4995867;28;20023;-76
2021/12/25 11:20:39;;;;;;;1.60;0.85;;;;;;;;;;5003826;28;20018;-76
2021/12/25 11:23:10;;;;;;;1.80;1.08;;;;;;;;;;4991298;28;20030;-75
2021/12/25 11:25:36;;;;;;;1.67;1.00;;;;;;;;;;4997225;28;20081;-76
2021/12/25 11:28:06;;;;;;;1.60;0.88;;;4.60;99.90;;;;;;4999239;28;20041;-77
2021/12/25 11:30:33;;;;;;;2.38;1.10;;;;;;;;;;4974746;28;20913;-76
2021/12/25 11:33:00;;;;;;;2.35;0.98;;;;;;;;;;4999456;28;20038;-78
2021/12/25 11:35:27;;;;;;;2.28;1.17;;;5.30;99.90;;;;;;5001564;28;20029;-78
2021/12/25 11:37:55;;;;;;;2.08;1.25;;;;;;;;;;4998647;28;20057;-78
2021/12/25 11:40:23;;;;;;;1.77;1.08;;;;;;;;;;5000698;28;20030;-78
2021/12/25 11:42:53;;;;;;;1.98;0.95;;;;;;;;;;5002930;28;20088;-77
2021/12/25 11:45:22;;;;;;;2.13;1.05;;;;;;;;;;5007950;28;20045;-77
2021/12/25 11:47:51;;;;;;;6.18;1.48;;;;;;;;;;4998331;28;20049;-77
2021/12/25 11:50:18;;;;;;;1.65;1.08;;;;;;;;;;5003713;28;20088;-77
2021/12/25 11:52:52;;;;;;;1.27;0.80;;;;;;;;;;5000086;28;20088;-77
2021/12/25 11:55:32;;;;;;;0.68;0.60;;;;;;;;;;5010284;28;20397;-77
2021/12/25 12:00:38;;;;;;;1.13;0.80;;;;;;;;;;5005694;28;20057;-77
2021/12/25 12:03:04;;;;;;;1.75;0.70;;;;;;;;;;5008918;28;20041;-77
2021/12/25 12:05:32;;;;;;;2.30;1.13;;;4.60;99.90;;;;;;4997292;28;20500;-77
2021/12/25 12:08:03;;;;;;;1.95;1.05;;;4.50;99.90;;;;;;4999354;28;20037;-77
2021/12/25 12:10:44;;;;;;;1.60;1.10;;;;;;;;;;5007225;28;20036;-78
2021/12/25 12:13:30;;;;;;;2.72;1.38;;;;;;;;;;5008298;28;20037;-77
2021/12/25 12:15:58;;;;;;;1.33;0.85;;;;;;;;;;5018851;28;20037;-77
2021/12/25 12:18:24;;;;;;;1.45;1.10;;;;;;;;;;5009672;28;20060;-78
2021/12/25 12:20:51;;;;;;;10.50;4.22;;;5.50;99.90;;;;;;5007149;28;20493;-79
2021/12/25 12:23:37;;;;;;;1.38;0.77;;;4.40;99.90;;;;;;5023819;28;20358;-78
2021/12/25 12:26:08;;;;;;;2.13;1.23;;;;;;;;;;5015053;28;20460;-78
2021/12/25 12:28:54;;;;;;;1.40;0.85;;;;;;;;;;5002306;28;20034;-79
2021/12/25 12:31:45;;;;;;;1.52;1.10;;;4.70;99.90;;;;;;5019666;28;20033;-77
2021/12/25 12:34:31;;;;;;;1.40;1.02;;;4.40;99.90;;;;;;5006435;28;20022;-78
2021/12/25 12:37:16;;;;;;;2.25;1.10;;;4.80;99.90;;;;;;5014110;28;20084;-77
2021/12/25 12:39:43;;;;;;;1.45;1.00;;;;;;;;;;5010362;28;20026;-77
2021/12/25 12:42:12;;;;;;;3.45;1.75;;;;;;;;;;4997725;28;20038;-77
2021/12/25 12:44:39;;;;;;;2.67;1.15;;;;;;;;;;5007669;28;20026;-77
2021/12/25 12:47:17;;;;;;;3.70;1.63;;;;;;;;;;5002447;28;20402;-78
2021/12/25 12:49:42;;;;;;;2.15;1.05;;;;;;;;;;4995128;28;20494;-77
2021/12/25 12:52:17;;;;;;;1.83;1.02;;;;;;;;;;5001131;28;20034;-77
2021/12/25 12:54:45;;;;;;;2.13;1.20;;;;;;;;;;4996362;28;20018;-77
2021/12/25 12:57:16;;;;;;;1.95;1.20;;;;;;;;;;5000993;28;20206;-76
2021/12/25 12:59:42;;;;;;;0.80;0.63;;;;;;;;;;4998258;28;20026;-77
2021/12/25 13:02:09;;;;;;;2.30;1.45;;;;;;;;;;5004619;28;20065;-78
2021/12/25 13:04:42;;;;;;;2.90;1.40;;;;;;;;;;5006705;28;20157;-77
2021/12/25 13:07:08;;;;;;;;;;;;;;;;;;5003240;28;20038;-77
2021/12/25 13:09:39;;;;;;;2.65;1.42;;;;;;;;;;5006347;28;19914;-77
2021/12/25 13:12:19;;;;;;;3.70;1.33;;;;;;;;;;5013742;28;20040;-77
2021/12/25 13:14:45;;;;;;;2.08;1.08;;;;;;;;;;5003446;28;20515;-77
2021/12/25 13:17:14;;;;;;;1.95;1.00;;;;;;;;;;4996167;28;20022;-77
2021/12/25 13:19:49;;;;;;;2.05;1.05;;;;;;;;;;4995163;28;20033;-77
2021/12/25 13:22:15;;;;;;;2.17;1.10;;;;;;;;;;5002369;28;20026;-77
2021/12/25 13:24:41;;;;;;;2.83;1.00;;;;;;;;;;5002512;28;20048;-76
2021/12/25 13:27:07;;;;;;;2.65;1.10;;;;;;;;;;4995309;28;20033;-77
2021/12/25 13:29:33;;;;;;;1.55;1.05;;;;;;;;;;4998305;28;20022;-77
2021/12/25 13:32:00;;;;;;;2.20;1.05;;;;;;;;;;5010456;28;20052;-77
2021/12/25 13:34:28;;;;;;;4.60;1.60;;;;;;;;;;5001599;28;20129;-77
2021/12/25 13:36:56;;;;;;;3.03;1.45;;;;;;;;;;5006534;28;20033;-77
2021/12/25 13:39:25;;;;;;;3.58;1.23;;;;;;;;;;5005617;28;20018;-78
2021/12/25 13:41:52;;;;;;;2.17;1.23;;;;;;;;;;5005834;28;20113;-78
2021/12/25 13:44:18;;;;;;;3.50;1.65;;;;;;;;;;5002758;28;20041;-78
2021/12/25 13:47:01;;;;;;;2.08;1.23;;;;;;;;;;5004606;28;20041;-78
2021/12/25 13:49:42;;;;;;;2.77;1.00;;;;;;;;;;5010648;28;20068;-78
2021/12/25 13:52:11;;;;;;;2.85;1.58;;;;;;;;;;5006982;28;20760;-78
2021/12/25 13:54:39;;;;;;;1.35;0.93;;;;;;;;;;5012138;28;20037;-78
2021/12/25 13:57:05;;;;;;;3.97;1.48;;;;;;;;;;5006161;28;20469;-78
2021/12/25 13:59:31;;;;;;;2.08;1.00;;;;;;;;;;5007722;28;20022;-78
2021/12/25 14:02:03;;;;;;;3.35;1.48;;;;;;;;;;5004697;28;20038;-79
2021/12/25 14:04:31;;;;;;;1.67;1.33;;;;;;;;;;5002277;28;20031;-77
2021/12/25 14:06:58;;;;;;;2.10;1.40;;;;;;;;;;5002558;28;20128;-78
2021/12/25 14:09:24;;;;;;;3.55;1.48;;;;;;;;;;5003173;28;20093;-78
2021/12/25 14:11:55;;;;;;;2.75;1.77;;;;;;;;;;4998823;28;20120;-77
2021/12/25 14:14:22;;;;;;;3.65;1.77;;;;;;;;;;5007524;28;20131;-77
2021/12/25 14:16:49;;;;;;;3.10;1.40;;;;;;;;;;5005147;28;20030;-78
2021/12/25 14:19:15;;;;;;;4.22;1.63;;;;;;;;;;5004996;28;20030;-79
2021/12/25 14:21:51;;;;;;;6.32;2.47;;;;;;;;;;5002924;28;20029;-78
2021/12/25 14:24:17;;;;;;;2.53;1.98;;;;;;;;;;5001518;28;20038;-78
2021/12/25 14:26:43;;;;;;;3.38;1.60;;;;;;;;;;5004637;28;20126;-79
2021/12/25 14:29:19;;;;;;;2.83;1.92;;;;;;;;;;5010132;28;20029;-78
2021/12/25 14:31:45;;;;;;;3.35;2.30;;;;;;;;;;5004206;28;20030;-78
2021/12/25 14:34:11;;;;;;;3.50;1.73;;;;;;;;;;5008780;28;20143;-78
2021/12/25 14:36:38;;;;;;;3.10;1.67;;;;;;;;;;5014947;28;20030;-78
2021/12/25 14:39:05;;;;;;;2.42;1.80;;;;;;;;;;5007186;28;20038;-78
2021/12/25 14:41:35;;;;;;;1.77;1.45;;;3.80;99.90;;;;;;5001406;28;20180;-78
2021/12/25 14:44:14;;;;;;;2.83;2.08;;;;;;;;;;5010314;28;20064;-79
2021/12/25 14:46:40;;;;;;;3.08;1.40;;;;;;;;;;5010060;28;20516;-78
2021/12/25 14:49:06;;;;;;;2.60;1.58;;;;;;;;;;5007521;28;20030;-78
2021/12/25 14:51:35;;;;;;;2.55;1.50;;;;;;;;;;5005266;28;20041;-79
2021/12/25 14:54:01;;;;;;;3.28;1.35;;;;;;;;;;5009141;28;20519;-79
2021/12/25 14:56:29;;;;;;;1.65;1.13;;;;;;;;;;5007858;28;20049;-78
2021/12/25 14:58:57;;;;;;;4.25;1.85;;;;;;;;;;5008814;28;20030;-78
2021/12/25 15:01:25;;;;;;;2.67;1.80;;;;;;;;;;5007827;28;20030;-77
2021/12/25 15:04:11;;;;;;;3.05;1.63;;;;;;;;;;5003935;28;20495;-78
2021/12/25 15:06:42;;;;;;;2.28;1.45;;;;;;;;;;5008129;28;20041;-78
2021/12/25 15:09:10;;;;;;;2.95;1.75;;;;;;;;;;5002616;28;20042;-78
2021/12/25 15:11:38;;;;;;;3.53;1.42;;;;;;;;;;5007389;28;20113;-79
2021/12/25 15:14:08;;;;;;;3.05;1.50;;;;;;;;;;5009005;28;20036;-79
2021/12/25 15:16:35;;;;;;;4.20;1.90;;;;;;;;;;4999971;28;20056;-78
2021/12/25 15:19:01;;;;;;;1.38;0.85;;;;;;;;;;5014444;28;20108;-78
2021/12/25 15:21:27;;;;;;;2.13;1.00;;;;;;;;;;4995931;28;20038;-78
2021/12/25 15:24:10;;;;;;;2.47;1.73;;;;;;;;;;4999850;28;20059;-78
2021/12/25 15:26:40;;;;;;;3.20;1.75;;;;;;;;;;5006796;28;20045;-79
2021/12/25 15:29:06;;;;;;;2.05;1.38;;;;;;;;;;4997792;28;20042;-79
2021/12/25 15:31:33;;;;;;;1.75;1.33;;;;;;;;;;5004444;28;20030;-78
2021/12/25 15:34:00;;;;;;;3.80;1.58;;;;;;;;;;5014156;28;20034;-78
2021/12/25 15:36:29;;;;;;;1.85;1.23;;;3.80;99.90;;;;;;5005010;28;20030;-78
2021/12/25 15:38:56;;;;;;;2.42;1.35;;;;;;;;;;5009123;28;20500;-78
2021/12/25 15:41:22;;;;;;;3.00;1.70;;;;;;;;;;4999141;28;20038;-79
2021/12/25 15:43:48;;;;;;;2.58;1.60;;;;;;;;;;5008128;28;20124;-78
2021/12/25 15:46:15;;;;;;;2.20;1.25;;;;;;;;;;5003375;28;20124;-78
2021/12/25 15:48:41;;;;;;;2.65;1.48;;;;;;;;;;5001365;28;20036;-77
2021/12/25 15:51:08;;;;;;;4.20;2.35;;;;;;;;;;5007123;28;20112;-77
2021/12/25 15:53:34;;;;;;;2.75;1.50;;;;;;;;;;5002858;28;20076;-77